Time;durP1;ratioP1;P1;durP2;ratioP2;P2;SDS_P1;SDS_P2;PMS_P1;PMS_P2;Temp;Humidity;BMP_temperature;BMP_pressure;BME280_temperature;BME280_humidity;BME280_pressure;Samples;Min_cycle;Max_cycle;Signal;HPM_P1;HPM_P2
2021/08/18 00:00:35;;;;;;;16.90;14.23;;;;;;;14.96;80.66;101243.13;2616650;54;20130;-76
2021/08/18 00:03:02;;;;;;;17.63;14.50;;;;;;;15.02;80.12;101230.28;2616033;54;20159;-77
2021/08/18 00:05:27;;;;;;;16.50;14.50;;;;;;;14.99;80.41;101227.69;2616355;54;20128;-76
2021/08/18 00:07:52;;;;;;;19.17;15.17;;;;;;;15.20;79.58;101222.66;2616518;47;20147;-75
2021/08/18 00:10:18;;;;;;;19.07;14.13;;;;;;;15.28;79.04;101228.75;2616414;54;20127;-78
2021/08/18 00:12:43;;;;;;;20.10;15.80;;;;;;;15.15;79.37;101220.91;2616883;54;20673;-77
2021/08/18 00:15:10;;;;;;;20.40;15.07;;;;;;;15.11;79.32;101224.31;2616642;54;20136;-77
2021/08/18 00:17:36;;;;;;;19.47;15.73;;;;;;;15.10;79.28;101228.59;2616925;39;20512;-76
2021/08/18 00:20:01;;;;;;;20.83;16.67;;;;;;;14.95;79.42;101228.50;2616218;54;20127;-75
2021/08/18 00:22:26;;;;;;;18.83;14.40;;;;;;;14.95;79.52;101227.63;2616729;54;20130;-75
2021/08/18 00:24:52;;;;;;;19.10;15.03;;;;;;;14.84;80.13;101224.09;2616252;54;20215;-77
2021/08/18 00:27:17;;;;;;;18.40;14.80;;;;;;;14.79;79.96;101224.09;2617153;39;20561;-76
2021/08/18 00:29:42;;;;;;;20.00;14.67;;;;;;;14.77;80.00;101223.19;2616681;47;20215;-77
2021/08/18 00:32:09;;;;;;;17.57;15.03;;;;;;;15.01;79.32;101222.53;2616752;54;20219;-77
2021/08/18 00:34:34;;;;;;;17.40;13.97;;;;;;;14.74;80.17;101230.03;2616459;54;20127;-75
2021/08/18 00:37:00;;;;;;;19.17;15.83;;;;;;;14.83;80.12;101224.97;2616460;54;20148;-76
2021/08/18 00:39:25;;;;;;;18.17;13.70;;;;;;;15.01;79.52;101235.44;2616459;54;20139;-77
2021/08/18 00:41:51;;;;;;;18.07;14.43;;;;;;;15.11;78.90;101225.16;2616681;54;20128;-76
2021/08/18 00:44:17;;;;;;;16.83;14.80;;;;;;;15.34;77.99;101227.97;2616553;54;20228;-75
2021/08/18 00:46:51;;;;;;;17.70;15.37;;;;;;;15.05;78.83;101225.13;2616330;54;20926;-76
2021/08/18 00:49:18;;;;;;;20.47;15.17;;;;;;;14.81;79.63;101237.84;2617337;31;20585;-76
2021/08/18 00:51:43;;;;;;;18.87;15.13;;;;;;;14.80;79.97;101232.66;2616563;54;20180;-76
2021/08/18 00:54:09;;;;;;;18.27;14.90;;;;;;;14.87;79.29;101217.25;2617217;39;20573;-75
2021/08/18 00:56:34;;;;;;;17.20;15.17;;;;;;;14.90;79.04;101217.28;2617038;39;20651;-76
2021/08/18 00:58:59;;;;;;;19.57;15.13;;;;;;;15.08;78.29;101221.72;2616386;54;20147;-76
2021/08/18 01:01:25;;;;;;;17.27;14.37;;;;;;;14.97;79.03;101221.63;2616983;39;20765;-77
2021/08/18 01:03:50;;;;;;;18.13;15.83;;;;;;;15.02;78.74;101230.28;2616927;39;20550;-76
2021/08/18 01:06:15;;;;;;;18.83;14.70;;;;;;;14.85;79.34;101220.66;2615731;54;20152;-77
2021/08/18 01:08:40;;;;;;;17.53;14.17;;;;;;;14.95;79.54;101227.63;2616451;46;20954;-77
2021/08/18 01:11:06;;;;;;;15.20;12.83;;;;;;;14.94;79.36;101228.47;2616468;46;20128;-76
2021/08/18 01:13:31;;;;;;;19.53;14.30;;;;;;;14.92;79.34;101219.88;2616443;54;20130;-75
2021/08/18 01:15:58;;;;;;;18.47;14.10;;;;;;;14.90;79.07;101219.00;2616027;54;20195;-74
2021/08/18 01:18:23;;;;;;;20.70;14.20;;;;;;;14.93;79.48;101208.72;2616102;54;20151;-75
2021/08/18 01:20:49;;;;;;;18.00;14.00;;;;;;;14.97;79.22;101211.31;2616249;54;20152;-76
2021/08/18 01:23:15;;;;;;;15.80;13.63;;;;;;;14.82;79.67;101221.50;2616376;54;20142;-78
2021/08/18 01:25:42;;;;;;;18.77;14.83;;;;;;;14.92;78.85;101215.56;2616267;54;20139;-75
2021/08/18 01:28:09;;;;;;;15.73;12.83;;;;;;;14.94;79.24;101213.00;2616413;54;20705;-77
2021/08/18 01:30:36;;;;;;;17.60;13.67;;;;;;;14.94;78.93;101210.44;2616308;54;20123;-76
2021/08/18 01:33:11;;;;;;;16.13;13.60;;;;;;;14.96;79.16;101213.91;2616355;54;20138;-76
2021/08/18 01:35:42;;;;;;;15.47;13.53;;;;;;;14.81;79.46;101217.22;2616226;54;20154;-77
2021/08/18 01:38:10;;;;;;;16.17;13.43;;;;;;;14.73;79.88;101215.44;2616902;39;20565;-76
2021/08/18 01:40:36;;;;;;;18.03;13.67;;;;;;;14.86;79.72;101215.53;2616386;54;20131;-77
2021/08/18 01:43:02;;;;;;;17.87;13.90;;;;;;;14.93;79.05;101216.44;2614928;54;20296;-75
2021/08/18 01:45:36;;;;;;;16.67;13.30;;;;;;;14.88;79.73;101223.28;2616657;39;20583;-76
2021/08/18 01:48:09;;;;;;;16.40;13.43;;;;;;;14.80;79.72;101218.06;2616320;54;20153;-78
2021/08/18 01:50:34;;;;;;;20.57;14.50;;;;;;;14.83;80.25;101220.66;2616468;54;20119;-76
2021/08/18 01:53:00;;;;;;;16.80;14.23;;;;;;;14.65;81.76;101210.19;2615856;54;20180;-77
2021/08/18 01:55:26;;;;;;;17.73;14.23;;;;;;;14.80;81.10;101215.50;2616363;54;20144;-77
2021/08/18 01:57:53;;;;;;;17.80;12.97;;;;;;;14.79;80.12;101218.06;2616541;54;20258;-76
2021/08/18 02:00:18;;;;;;;16.27;13.37;;;;;;;14.73;80.90;101212.84;2616081;54;20127;-74
2021/08/18 02:02:44;;;;;;;14.37;12.37;;;;;;;14.69;80.73;101211.09;2616233;54;20673;-76
2021/08/18 02:05:10;;;;;;;15.77;13.23;;;;;;;14.61;81.52;101211.03;2616545;39;20522;-76
2021/08/18 02:07:36;;;;;;;15.80;12.57;;;;;;;14.58;81.05;101211.00;2616241;54;20175;-76
2021/08/18 02:10:04;;;;;;;15.37;13.73;;;;;;;14.98;79.43;101209.59;2616273;54;20130;-77
2021/08/18 02:12:29;;;;;;;15.80;14.20;;;;;;;14.76;80.05;101202.53;2616239;54;20140;-76
2021/08/18 02:14:54;;;;;;;16.07;13.67;;;;;;;14.94;79.78;101205.28;2615630;54;20186;-76
2021/08/18 02:17:20;;;;;;;18.87;13.60;;;;;;;14.81;79.86;101206.91;2615594;54;20209;-75
2021/08/18 02:19:45;;;;;;;18.93;14.20;;;;;;;15.21;78.53;101198.59;2616609;39;21024;-75
2021/08/18 02:22:10;;;;;;;17.53;13.67;;;;;;;15.03;78.54;101201.06;2616332;47;20157;-75
2021/08/18 02:24:35;;;;;;;19.00;14.90;;;;;;;14.84;79.34;101199.19;2616203;54;20279;-78
2021/08/18 02:27:01;;;;;;;16.63;14.83;;;;;;;14.79;79.43;101200.88;2616073;47;20823;-76
2021/08/18 02:29:26;;;;;;;17.50;14.83;;;;;;;15.04;78.79;101192.47;2616199;47;20187;-76
2021/08/18 02:31:51;;;;;;;18.17;14.37;;;;;;;14.89;79.03;101196.66;2616231;54;20210;-77
2021/08/18 02:34:16;;;;;;;17.83;14.83;;;;;;;14.78;79.57;101190.56;2616671;46;20640;-77
2021/08/18 02:36:42;;;;;;;16.67;14.00;;;;;;;14.71;79.46;101184.47;2615902;54;20132;-76
2021/08/18 02:39:08;;;;;;;18.17;14.67;;;;;;;14.78;79.12;101180.25;2616223;47;20146;-76
2021/08/18 02:41:34;;;;;;;19.83;15.13;;;;;;;14.58;80.36;101182.66;2616311;54;20123;-75
2021/08/18 02:43:59;;;;;;;19.30;15.63;;;;;;;14.48;80.94;101175.69;2615454;47;20660;-76
2021/08/18 02:46:24;;;;;;;20.47;16.57;;;;;;;14.58;80.31;101169.75;2615936;54;20150;-76
2021/08/18 02:48:50;;;;;;;20.33;16.23;;;;;;;14.65;80.35;101178.41;2616002;54;20151;-76
2021/08/18 02:51:15;;;;;;;17.43;15.57;;;;;;;14.64;80.08;101174.94;2616034;54;20249;-77
2021/08/18 02:53:40;;;;;;;19.60;16.97;;;;;;;14.64;80.12;101176.69;2616486;47;20179;-76
2021/08/18 02:56:05;;;;;;;22.03;16.80;;;;;;;14.73;79.72;101175.03;2616146;47;20143;-76
2021/08/18 02:58:31;;;;;;;19.00;16.23;;;;;;;14.57;79.75;101170.63;2616371;54;20159;-76
2021/08/18 03:00:56;;;;;;;18.77;16.63;;;;;;;14.57;80.32;101169.75;2615475;54;20163;-77
2021/08/18 03:03:22;;;;;;;17.57;15.57;;;;;;;14.43;80.22;101166.19;2616230;47;20139;-76
2021/08/18 03:05:47;;;;;;;19.67;16.67;;;;;;;14.26;80.87;101162.56;2615945;54;20128;-75
2021/08/18 03:08:12;;;;;;;20.10;17.70;;;;;;;14.39;80.85;101151.53;2616167;47;20151;-76
2021/08/18 03:10:37;;;;;;;19.03;16.60;;;;;;;14.35;80.86;101155.81;2616185;54;20136;-76
2021/08/18 03:13:03;;;;;;;18.37;15.70;;;;;;;14.57;80.46;101150.00;2616002;54;20736;-74
2021/08/18 03:15:28;;;;;;;19.23;16.23;;;;;;;14.51;80.07;101151.66;2616174;54;20234;-76
2021/08/18 03:17:54;;;;;;;20.00;16.03;;;;;;;14.47;80.20;101148.19;2616464;39;20599;-77
2021/08/18 03:20:19;;;;;;;18.20;15.13;;;;;;;14.47;80.31;101150.78;2616684;39;20552;-77
2021/08/18 03:22:44;;;;;;;21.17;15.90;;;;;;;14.43;80.84;101148.16;2616321;54;20131;-76
2021/08/18 03:25:10;;;;;;;19.07;15.77;;;;;;;14.68;79.52;101150.94;2616047;54;20133;-76
2021/08/18 03:27:36;;;;;;;19.23;16.13;;;;;;;14.54;79.81;101147.38;2615952;54;20159;-75
2021/08/18 03:30:02;;;;;;;18.97;15.43;;;;;;;14.43;80.52;101155.88;2615935;54;20151;-75
2021/08/18 03:32:28;;;;;;;19.87;15.30;;;;;;;14.55;80.07;101153.41;2616042;54;20235;-76
2021/08/18 03:34:53;;;;;;;17.77;15.67;;;;;;;14.55;80.14;101153.41;2616203;47;20135;-76
2021/08/18 03:37:18;;;;;;;19.80;15.47;;;;;;;14.46;79.73;101149.03;2616007;47;20199;-76
2021/08/18 03:39:43;;;;;;;16.77;14.67;;;;;;;14.49;80.51;101151.63;2615708;54;20143;-74
2021/08/18 03:42:09;;;;;;;19.97;14.97;;;;;;;14.56;80.16;101150.84;2615924;54;20740;-77
2021/08/18 03:44:34;;;;;;;17.67;14.40;;;;;;;14.51;79.86;101152.50;2616033;47;20144;-77
2021/08/18 03:46:59;;;;;;;15.90;14.13;;;;;;;14.48;79.97;101159.34;2615854;54;20136;-75
2021/08/18 03:49:25;;;;;;;16.47;13.63;;;;;;;14.53;79.42;101158.56;2615403;54;20239;-77
2021/08/18 03:51:51;;;;;;;19.43;14.83;;;;;;;14.45;80.08;101155.03;2616374;39;20536;-76
2021/08/18 03:54:16;;;;;;;17.57;13.50;;;;;;;14.35;80.39;101160.09;2616015;39;20179;-78
2021/08/18 03:56:41;;;;;;;18.60;13.87;;;;;;;14.36;80.79;101151.53;2615998;54;20174;-78
2021/08/18 03:59:07;;;;;;;18.67;14.50;;;;;;;14.66;79.93;101157.81;2616357;54;20151;-76
2021/08/18 04:01:32;;;;;;;18.40;14.37;;;;;;;14.56;79.54;101152.56;2616725;54;20120;-75
2021/08/18 04:03:57;;;;;;;16.80;14.03;;;;;;;14.29;80.81;101158.34;2617007;54;20175;-77
2021/08/18 04:06:22;;;;;;;18.53;15.00;;;;;;;14.40;80.58;101153.25;2616977;46;20118;-76
2021/08/18 04:08:48;;;;;;;17.80;14.87;;;;;;;14.60;80.22;101146.56;2616743;46;20163;-77
2021/08/18 04:11:13;;;;;;;22.93;16.27;;;;;;;14.75;79.67;101160.44;2617046;39;20553;-75
2021/08/18 04:13:38;;;;;;;20.33;15.90;;;;;;;14.77;79.62;101160.44;2616086;47;20194;-76
2021/08/18 04:16:04;;;;;;;18.80;16.03;;;;;;;14.51;80.19;101154.22;2617211;39;20799;-75
2021/08/18 04:18:29;;;;;;;20.07;17.40;;;;;;;14.51;80.72;101159.38;2616627;54;20151;-76
2021/08/18 04:20:54;;;;;;;20.40;17.50;;;;;;;14.74;80.41;101158.69;2616849;54;20175;-75
2021/08/18 04:23:20;;;;;;;21.60;17.00;;;;;;;14.66;80.37;101155.22;2617709;54;20116;-75
2021/08/18 04:25:45;;;;;;;23.07;17.47;;;;;;;14.72;80.32;101156.97;2617922;54;20119;-76
2021/08/18 04:28:10;;;;;;;23.07;17.60;;;;;;;14.64;80.63;101156.91;2617808;47;20708;-76
2021/08/18 04:30:36;;;;;;;24.27;17.80;;;;;;;14.67;80.49;101164.69;2616784;54;20119;-76
2021/08/18 04:33:01;;;;;;;22.40;17.53;;;;;;;14.84;79.81;101163.09;2617091;46;20551;-75
2021/08/18 04:35:26;;;;;;;23.40;18.70;;;;;;;14.97;79.16;101167.47;2616836;54;20180;-75
2021/08/18 04:37:52;;;;;;;21.97;17.47;;;;;;;14.91;79.41;101164.00;2616493;54;20158;-77
2021/08/18 04:40:21;;;;;;;23.37;17.50;;;;;;;14.89;79.84;101174.31;2616401;54;20130;-76
2021/08/18 04:42:50;;;;;;;26.33;19.07;;;;;;;14.92;79.63;101173.47;2616543;54;20123;-76
2021/08/18 04:45:16;;;;;;;22.13;17.50;;;;;;;15.07;79.14;101158.09;2616419;54;20116;-75
2021/08/18 04:47:42;;;;;;;28.57;18.83;;;;;;;15.09;78.59;101158.94;2616243;54;20150;-74
2021/08/18 04:50:10;;;;;;;23.73;18.60;;;;;;;15.09;78.75;101161.53;2617050;31;20631;-76
2021/08/18 04:52:35;;;;;;;23.30;18.03;;;;;;;15.01;79.17;101153.75;2616742;39;20643;-75
2021/08/18 04:55:00;;;;;;;25.27;18.70;;;;;;;14.99;78.82;101160.63;2616578;46;20246;-76
2021/08/18 04:57:26;;;;;;;28.07;20.17;;;;;;;14.91;79.54;101164.00;2617007;39;20318;-78
2021/08/18 04:59:51;;;;;;;21.57;18.00;;;;;;;15.03;79.33;101162.38;2616165;54;20166;-76
2021/08/18 05:02:16;;;;;;;23.20;18.37;;;;;;;15.16;78.14;101164.19;2616126;54;20139;-74
2021/08/18 05:04:42;;;;;;;26.00;18.90;;;;;;;15.19;78.70;101165.91;2616630;54;20175;-74
2021/08/18 05:07:07;;;;;;;22.40;17.63;;;;;;;15.17;78.58;101153.00;2616022;54;20124;-76
2021/08/18 05:09:32;;;;;;;22.47;18.03;;;;;;;15.07;78.99;101153.81;2616222;54;20147;-75
2021/08/18 05:11:58;;;;;;;23.80;18.27;;;;;;;15.25;78.62;101153.03;2616182;54;20168;-75
2021/08/18 05:14:23;;;;;;;22.73;16.87;;;;;;;15.23;78.34;101152.16;2616621;46;20135;-78
2021/08/18 05:16:49;;;;;;;22.23;17.87;;;;;;;15.25;78.62;101161.66;2616378;54;20123;-76
2021/08/18 05:19:15;;;;;;;21.23;18.10;;;;;;;15.44;77.21;101157.47;2616122;54;20908;-76
2021/08/18 05:21:40;;;;;;;23.53;17.70;;;;;;;15.45;77.81;101156.59;2616331;54;20135;-75
2021/08/18 05:24:06;;;;;;;24.40;17.63;;;;;;;15.48;76.93;101154.88;2616642;54;20204;-77
2021/08/18 05:26:31;;;;;;;19.20;16.03;;;;;;;15.33;77.75;101149.63;2616297;54;20169;-76
2021/08/18 05:28:56;;;;;;;21.33;16.73;;;;;;;15.43;77.00;101143.69;2616173;54;20151;-75
2021/08/18 05:31:21;;;;;;;19.83;16.50;;;;;;;15.37;77.72;101145.41;2616315;54;20147;-77
2021/08/18 05:33:47;;;;;;;22.07;18.07;;;;;;;15.44;76.79;101144.56;2617440;46;20671;-77
2021/08/18 05:36:12;;;;;;;22.50;16.97;;;;;;;15.36;77.17;101143.66;2616716;47;20123;-76
2021/08/18 05:38:37;;;;;;;21.33;17.40;;;;;;;15.40;77.30;101138.53;2616262;54;20143;-76
2021/08/18 05:41:03;;;;;;;22.27;17.70;;;;;;;15.41;77.14;101139.38;2616339;54;20207;-76
2021/08/18 05:43:28;;;;;;;22.50;17.23;;;;;;;15.54;76.37;101134.28;2616549;54;20130;-76
2021/08/18 05:45:53;;;;;;;20.77;16.97;;;;;;;15.47;77.25;101142.84;2616684;54;20642;-76
2021/08/18 05:48:19;;;;;;;21.27;16.77;;;;;;;15.39;77.61;101151.41;2616374;47;20312;-76
2021/08/18 05:50:44;;;;;;;18.47;16.47;;;;;;;15.58;77.28;101140.31;2616411;47;20183;-76
2021/08/18 05:53:15;;;;;;;19.30;16.43;;;;;;;15.76;76.65;101130.06;2616255;54;20207;-77
2021/08/18 05:55:42;;;;;;;22.57;16.87;;;;;;;15.78;75.84;101126.63;2616533;54;20123;-76
2021/08/18 05:58:07;;;;;;;21.87;17.13;;;;;;;15.77;75.90;101131.78;2616331;54;20163;-77
2021/08/18 06:00:32;;;;;;;17.77;15.33;;;;;;;15.73;76.54;101132.63;2616209;54;20651;-77
2021/08/18 06:02:58;;;;;;;20.00;16.30;;;;;;;15.90;75.32;101139.56;2611460;47;20250;-77
2021/08/18 06:05:23;;;;;;;18.83;15.73;;;;;;;15.84;76.29;101144.69;2615651;54;20275;-76
2021/08/18 06:07:48;;;;;;;20.43;17.10;;;;;;;15.96;76.30;101143.88;2616026;46;20705;-75
2021/08/18 06:10:13;;;;;;;21.77;15.63;;;;;;;16.07;75.09;101129.28;2615993;54;20150;-77
2021/08/18 06:12:39;;;;;;;17.90;16.00;;;;;;;16.04;75.81;101137.00;2616383;47;20211;-76
2021/08/18 06:15:04;;;;;;;18.60;16.57;;;;;;;16.12;75.43;101135.31;2616756;39;20617;-77
2021/08/18 06:17:30;;;;;;;20.77;16.90;;;;;;;16.10;75.54;101135.31;2615633;54;20130;-76
2021/08/18 06:19:55;;;;;;;20.20;16.57;;;;;;;16.15;75.77;101131.00;2617148;39;20526;-76
2021/08/18 06:22:20;;;;;;;18.90;15.73;;;;;;;16.44;74.52;101133.66;2616318;54;20156;-78
2021/08/18 06:24:49;;;;;;;20.00;15.93;;;;;;;16.49;73.56;101125.00;2620399;36;20206;-75
2021/08/18 06:27:16;;;;;;;19.73;16.10;;;;;;;16.44;73.44;101118.97;2615848;54;20174;-76
2021/08/18 06:29:41;;;;;;;21.67;16.40;;;;;;;16.32;74.58;101116.38;2615245;54;20123;-77
2021/08/18 06:32:07;;;;;;;19.50;15.60;;;;;;;16.46;74.25;101122.44;2616273;54;20128;-77
2021/08/18 06:34:32;;;;;;;16.50;14.80;;;;;;;16.70;73.37;101129.31;2616411;54;20625;-77
2021/08/18 06:37:01;;;;;;;14.60;13.10;;;;;;;16.52;73.61;101118.97;2616095;54;20139;-77
2021/08/18 06:39:29;;;;;;;15.07;13.57;;;;;;;16.63;74.01;101131.03;2615924;54;20984;-76
2021/08/18 06:41:54;;;;;;;15.10;12.57;;;;;;;16.72;73.73;101131.03;2616404;54;20268;-76
2021/08/18 06:44:20;;;;;;;15.27;12.20;;;;;;;16.77;73.53;101131.03;2616398;47;20135;-77
2021/08/18 06:46:45;;;;;;;14.30;11.43;;;;;;;16.95;72.82;101131.03;2616439;47;20135;-78
2021/08/18 06:49:10;;;;;;;12.07;10.87;;;;;;;16.89;72.95;101134.47;2616091;54;20183;-75
2021/08/18 06:51:35;;;;;;;12.80;11.50;;;;;;;16.57;73.28;101131.06;2616009;39;20525;-79
2021/08/18 06:54:01;;;;;;;10.33;9.33;;;;;;;16.65;73.18;101124.16;2616261;54;20240;-75
2021/08/18 06:56:26;;;;;;;10.67;9.43;;;;;;;16.68;73.07;101128.47;2615733;54;20653;-76
2021/08/18 06:58:51;;;;;;;12.10;9.50;;;;;;;16.68;73.26;101126.75;2615663;47;20147;-77
2021/08/18 07:01:16;;;;;;;9.20;8.30;;;;;;;16.62;73.56;101131.06;2616192;54;20111;-77
2021/08/18 07:03:42;;;;;;;9.63;8.53;;;;;;;16.77;73.11;101131.03;2616961;31;20575;-77
2021/08/18 07:06:07;;;;;;;11.57;8.07;;;;;;;16.76;73.73;101124.16;2615999;47;20167;-77
2021/08/18 07:08:32;;;;;;;8.73;6.93;;;;;;;16.74;73.10;101126.75;2615232;54;20250;-77
2021/08/18 07:10:58;;;;;;;9.53;8.03;;;;;;;16.74;73.05;101131.03;2616391;47;20119;-78
2021/08/18 07:13:23;;;;;;;10.17;6.90;;;;;;;16.59;74.53;101136.22;2616219;47;20127;-76
2021/08/18 07:15:49;;;;;;;11.10;6.93;;;;;;;16.88;72.40;101132.75;2615610;54;20120;-76
2021/08/18 07:18:14;;;;;;;9.80;6.83;;;;;;;16.83;72.97;101134.50;2615792;54;20178;-77
2021/08/18 07:20:39;;;;;;;8.80;6.53;;;;;;;16.88;72.48;101129.28;2615857;47;20219;-78
2021/08/18 07:23:05;;;;;;;7.77;5.87;;;;;;;16.97;72.16;101127.56;2616210;54;20215;-77
2021/08/18 07:25:30;;;;;;;9.33;6.10;;;;;;;16.86;73.41;101124.13;2651077;36;20745;-78
2021/08/18 07:27:56;;;;;;;6.67;5.90;;;;;;;16.64;73.35;101112.09;2616423;54;20254;-76
2021/08/18 07:30:21;;;;;;;7.57;5.87;;;;;;;16.56;74.37;101115.53;2617374;39;20521;-76
2021/08/18 07:32:46;;;;;;;6.13;5.50;;;;;;;16.62;73.60;101123.31;2617173;54;20135;-78
2021/08/18 07:35:12;;;;;;;8.13;5.17;;;;;;;16.50;74.72;101129.34;2616935;54;20128;-76
2021/08/18 07:37:37;;;;;;;6.30;4.93;;;;;;;16.83;73.22;101128.44;2617173;54;20152;-76
2021/08/18 07:40:04;;;;;;;6.70;4.90;;;;;;;16.86;73.01;101118.94;2617142;39;20593;-77
2021/08/18 07:42:29;;;;;;;4.73;4.10;;;;;;;16.96;72.99;101119.81;2616740;54;20656;-77
2021/08/18 07:44:55;;;;;;;5.00;4.37;;;;;;;17.01;72.24;101123.25;2616876;54;20127;-77
2021/08/18 07:47:21;;;;;;;6.30;4.63;;;;;;;17.14;71.46;101127.53;2616234;47;20183;-76
2021/08/18 07:49:46;;;;;;;6.00;4.00;;;;;;;17.02;71.89;101123.25;2616550;54;20124;-76
2021/08/18 07:52:11;;;;;;;7.13;4.33;;;;;;;17.19;71.42;101118.88;2616689;39;20536;-77
2021/08/18 07:54:37;;;;;;;4.70;3.93;;;;;;;17.30;70.75;101122.28;2616797;54;20123;-78
2021/08/18 07:57:02;;;;;;;4.97;3.47;;;;;;;17.16;71.32;101131.81;2616955;54;20231;-76
2021/08/18 07:59:27;;;;;;;5.60;3.60;;;;;;;17.21;71.54;101121.44;2616929;54;20685;-76
2021/08/18 08:01:53;;;;;;;7.20;3.63;;;;;;;17.26;71.10;101119.69;2616671;54;20150;-77
2021/08/18 08:04:18;;;;;;;4.07;3.07;;;;;;;17.20;70.68;101130.09;2616916;54;20629;-77
2021/08/18 08:06:45;;;;;;;4.20;3.20;;;;;;;17.14;71.30;101124.94;2616750;54;20131;-77
2021/08/18 08:09:10;;;;;;;3.83;3.23;;;;;;;17.04;72.27;101131.84;2616839;54;20155;-78
2021/08/18 08:11:36;;;;;;;5.53;3.50;;;;;;;16.98;72.30;101128.41;2616866;54;20150;-77
2021/08/18 08:14:01;;;;;;;5.43;3.20;;;;;;;17.02;71.88;101133.59;2617160;46;20119;-77
2021/08/18 08:16:26;;;;;;;4.53;2.73;;;;;;;17.24;71.04;101126.63;2617436;39;20517;-75
2021/08/18 08:18:51;;;;;;;5.30;3.00;;;;;;;17.18;71.01;101135.25;2616533;54;20143;-77
2021/08/18 08:21:17;;;;;;;4.87;2.83;;;;;;;17.22;70.88;101134.38;2616876;54;20132;-77
2021/08/18 08:23:42;;;;;;;5.70;2.83;;;;;;;17.37;70.17;101128.31;2617360;54;20638;-76
2021/08/18 08:26:08;;;;;;;6.00;2.70;;;;;;;17.29;70.55;101148.19;2640428;36;20226;-77
2021/08/18 08:28:33;;;;;;;4.53;2.73;;;;;;;17.27;71.10;101142.16;2617772;54;20147;-76
2021/08/18 08:30:58;;;;;;;6.00;3.30;;;;;;;17.28;71.17;101144.75;2617899;54;20126;-76
2021/08/18 08:33:24;;;;;;;6.27;2.87;;;;;;;17.56;70.99;101137.75;2618198;54;20132;-76
2021/08/18 08:35:49;;;;;;;5.30;2.87;;;;;;;17.70;69.17;101142.03;2616936;54;20707;-77
2021/08/18 08:38:16;;;;;;;6.70;3.43;;;;;;;17.73;69.90;101144.59;2616593;54;20174;-76
2021/08/18 08:40:44;;;;;;;5.07;2.97;;;;;;;17.84;68.71;101141.94;2616381;54;20116;-77
2021/08/18 08:43:11;;;;;;;6.37;2.57;;;;;;;17.75;68.57;101142.88;2616790;54;20139;-75
2021/08/18 08:45:38;;;;;;;4.37;2.37;;;;;;;17.78;68.88;101149.75;2616757;54;20135;-75
2021/08/18 08:48:06;;;;;;;5.63;2.87;;;;;;;17.83;68.90;101145.41;2616491;54;20140;-78
2021/08/18 08:50:32;;;;;;;5.47;2.87;;;;;;;17.74;70.42;101145.47;2616551;54;20116;-77
2021/08/18 08:52:58;;;;;;;6.60;2.70;;;;;;;17.76;69.84;101148.88;2616677;54;20116;-75
2021/08/18 08:55:23;;;;;;;4.60;2.50;;;;;;;17.56;71.43;101148.13;2616724;54;20154;-75
2021/08/18 08:57:54;;;;;;;4.80;2.57;;;;;;;17.28;72.13;101151.66;2616756;47;20688;-76
2021/08/18 09:00:21;;;;;;;4.00;2.50;;;;;;;17.44;72.55;101151.63;2615942;54;20688;-74
2021/08/18 09:02:47;;;;;;;4.17;2.47;;;;;;;17.51;72.42;101149.88;2616465;54;20152;-76
2021/08/18 09:05:24;;;;;;;3.93;2.13;;;;;;;17.29;73.19;101162.00;2616456;54;20127;-75
2021/08/18 09:07:56;;;;;;;5.63;2.90;;;;;;;17.42;73.43;101161.13;2617363;31;20791;-76
2021/08/18 09:10:21;;;;;;;3.90;3.00;;;;;;;17.43;72.99;101168.03;2615569;47;20139;-76
2021/08/18 09:12:47;;;;;;;5.10;2.87;;;;;;;17.38;74.14;101166.28;2616713;54;20122;-76
2021/08/18 09:15:18;;;;;;;4.33;3.40;;;;;;;17.49;73.67;101168.00;2616351;54;20148;-77
2021/08/18 09:17:49;;;;;;;5.07;2.93;;;;;;;17.44;74.37;101155.94;2615920;54;20190;-74
2021/08/18 09:20:14;;;;;;;4.37;3.40;;;;;;;17.47;73.93;101155.94;2617033;54;20199;-75
2021/08/18 09:22:46;;;;;;;4.17;3.10;;;;;;;17.70;72.62;101154.97;2617284;54;20195;-77
2021/08/18 09:25:20;;;;;;;6.67;2.87;;;;;;;17.53;74.30;101161.06;2615415;54;20140;-74
2021/08/18 09:27:52;;;;;;;4.47;3.20;;;;;;;17.80;72.93;101153.19;2614803;39;20562;-78
2021/08/18 09:30:38;;;;;;;6.20;3.40;;;;;;;17.74;73.55;101159.25;2615616;54;20150;-77
2021/08/18 09:33:10;;;;;;;4.93;3.47;;;;;;;17.97;72.38;101152.22;2616046;54;20119;-77
2021/08/18 09:35:35;;;;;;;5.13;3.50;;;;;;;18.16;70.92;101146.09;2616596;39;20906;-75
2021/08/18 09:38:13;;;;;;;4.67;3.00;;;;;;;18.22;70.49;101140.84;2615917;54;20235;-76
2021/08/18 09:40:44;;;;;;;6.00;3.50;;;;;;;18.16;71.22;101146.09;2616060;39;20553;-76
2021/08/18 09:43:12;;;;;;;4.40;3.30;;;;;;;18.17;71.19;101142.59;2616456;54;20138;-75
2021/08/18 09:45:40;;;;;;;6.30;3.40;;;;;;;18.46;69.08;101140.69;2616492;54;20115;-74
2021/08/18 09:48:08;;;;;;;6.57;3.60;;;;;;;18.36;70.27;101143.34;2616246;54;20143;-76
2021/08/18 09:50:50;;;;;;;5.17;3.27;;;;;;;18.58;69.17;101143.19;2616164;54;20147;-75
2021/08/18 09:53:20;;;;;;;7.53;3.40;;;;;;;18.40;69.94;101143.34;2615657;54;20644;-75
2021/08/18 09:55:51;;;;;;;6.63;3.33;;;;;;;18.29;69.00;101137.31;2613912;54;20147;-77
2021/08/18 09:58:28;;;;;;;6.83;3.53;;;;;;;18.20;68.98;101136.53;2615706;54;20193;-75
2021/08/18 10:00:55;;;;;;;6.87;3.77;;;;;;;18.15;70.03;101143.50;2615855;54;20138;-76
2021/08/18 10:03:21;;;;;;;5.87;3.90;;;;;;;18.28;68.67;101140.78;2615281;54;20126;-75
2021/08/18 10:05:50;;;;;;;8.63;4.27;;;;;;;18.33;68.58;101139.06;2616454;54;20147;-76
2021/08/18 10:08:18;;;;;;;8.67;4.37;;;;;;;18.60;67.05;101141.44;2615973;54;20728;-76
2021/08/18 10:10:44;;;;;;;7.60;4.03;;;;;;;18.60;67.75;101143.19;2616143;54;20127;-77
2021/08/18 10:13:10;;;;;;;6.87;3.80;;;;;;;18.54;66.75;101135.44;2616685;54;20132;-76
2021/08/18 10:15:36;;;;;;;5.77;3.80;;;;;;;18.65;67.10;101136.22;2616309;54;20125;-77
2021/08/18 10:18:05;;;;;;;4.17;3.77;;;;;;;18.82;66.16;101139.50;2616305;54;20143;-76
2021/08/18 10:20:30;;;;;;;4.57;3.10;;;;;;;18.96;65.22;101140.22;2616746;47;20166;-77
2021/08/18 10:23:06;;;;;;;6.97;3.57;;;;;;;18.83;66.05;101142.09;2617241;54;20116;-78
2021/08/18 10:25:36;;;;;;;6.87;3.53;;;;;;;18.98;65.92;101133.31;2615746;54;20158;-77
2021/08/18 10:28:08;;;;;;;6.90;3.90;;;;;;;19.31;64.75;101136.44;2611201;39;20614;-75
2021/08/18 10:30:52;;;;;;;9.73;4.17;;;;;;;19.12;65.17;101131.44;2615685;54;20156;-75
2021/08/18 10:33:53;;;;;;;6.37;3.63;;;;;;;18.85;66.20;101132.56;2617187;54;20199;-76
2021/08/18 10:36:41;;;;;;;5.70;4.03;;;;;;;18.90;65.60;101127.31;2614669;54;20187;-75
2021/08/18 10:39:18;;;;;;;6.97;4.10;;;;;;;18.85;66.11;101127.38;2615872;54;20267;-76
2021/08/18 10:42:08;;;;;;;6.40;3.63;;;;;;;18.94;65.90;101127.28;2616321;54;20115;-77
2021/08/18 10:44:39;;;;;;;6.53;4.13;;;;;;;18.99;66.57;101117.72;2631739;36;20214;-76
2021/08/18 10:47:25;;;;;;;7.17;4.17;;;;;;;19.29;64.87;101119.13;2616159;54;20135;-77
2021/08/18 10:49:54;;;;;;;7.83;4.00;;;;;;;19.17;63.29;101120.09;2616128;54;20155;-77
2021/08/18 10:52:29;;;;;;;7.53;4.17;;;;;;;18.95;65.32;101130.72;2616563;39;20568;-77
2021/08/18 10:55:06;;;;;;;7.30;4.40;;;;;;;18.94;65.99;101136.81;2616030;54;20123;-76
2021/08/18 10:57:37;;;;;;;6.50;3.93;;;;;;;18.97;64.73;101136.78;2616128;54;20146;-75
2021/08/18 11:00:14;;;;;;;8.97;3.90;;;;;;;18.98;64.26;101135.91;2615952;54;20135;-76
2021/08/18 11:03:00;;;;;;;8.03;4.53;;;;;;;18.82;66.12;101134.31;2615903;54;20127;-75
2021/08/18 11:05:36;;;;;;;8.07;4.00;;;;;;;18.90;65.85;101145.50;2617080;54;20115;-76
2021/08/18 11:08:14;;;;;;;7.37;4.03;;;;;;;18.76;67.36;101137.84;2616957;54;20139;-75
2021/08/18 11:11:03;;;;;;;7.87;3.70;;;;;;;18.74;67.24;101142.19;2617155;54;20143;-76
2021/08/18 11:13:51;;;;;;;6.43;4.17;;;;;;;18.53;67.66;101146.69;2617315;54;20668;-75